Time;durP1;ratioP1;P1;durP2;ratioP2;P2;SDS_P1;SDS_P2;PMS_P1;PMS_P2;Temp;Humidity;BMP_temperature;BMP_pressure;BME280_temperature;BME280_humidity;BME280_pressure;Samples;Min_cycle;Max_cycle;Signal;HPM_P1;HPM_P2
2023/07/25 00:00:50;;;;;;;4.27;2.00;;;18.90;99.90;;;;;;8198708;28;20204;-67
2023/07/25 00:04:50;;;;;;;6.97;2.37;;;18.80;99.90;;;;;;8199846;28;20216;-65
2023/07/25 00:08:51;;;;;;;5.07;1.93;;;18.60;99.90;;;;;;8200964;28;20200;-66
2023/07/25 00:12:54;;;;;;;6.63;1.87;;;18.40;99.90;;;;;;8198683;28;20295;-64
2023/07/25 00:16:55;;;;;;;3.33;2.60;;;18.40;99.90;;;;;;8202593;28;20264;-66
2023/07/25 00:20:56;;;;;;;3.67;2.20;;;18.20;99.90;;;;;;8203066;28;20197;-64
2023/07/25 00:24:57;;;;;;;4.47;2.10;;;18.10;99.90;;;;;;8203291;28;20314;-66
2023/07/25 00:28:58;;;;;;;5.00;2.37;;;18.00;99.90;;;;;;8200919;28;20186;-65
2023/07/25 00:32:59;;;;;;;2.73;1.90;;;17.90;1.00;;;;;;8202208;28;20243;-64
2023/07/25 00:37:00;;;;;;;5.80;2.47;;;17.80;1.00;;;;;;8199426;28;20205;-64
2023/07/25 00:41:00;;;;;;;2.77;2.30;;;17.70;1.00;;;;;;8216807;28;20192;-65
2023/07/25 00:45:01;;;;;;;4.17;2.23;;;17.60;1.00;;;;;;8199009;28;20227;-64
2023/07/25 00:49:04;;;;;;;2.60;2.13;;;17.60;1.00;;;;;;8202194;28;20227;-64
2023/07/25 00:53:06;;;;;;;4.43;2.50;;;17.50;1.00;;;;;;8203786;28;20192;-65
2023/07/25 00:57:07;;;;;;;3.37;1.87;;;17.50;1.00;;;;;;8207352;28;20185;-64
2023/07/25 01:01:08;;;;;;;2.60;2.03;;;17.40;1.00;;;;;;8195187;28;20247;-72
2023/07/25 01:05:09;;;;;;;2.53;2.00;;;17.40;1.00;;;;;;8213328;28;20216;-64
2023/07/25 01:09:10;;;;;;;3.80;2.40;;;17.30;1.00;;;;;;8198357;28;20225;-66
2023/07/25 01:13:11;;;;;;;2.90;1.90;;;17.30;1.00;;;;;;8195061;28;20244;-65
2023/07/25 01:17:15;;;;;;;2.87;2.10;;;17.20;1.00;;;;;;8211581;28;20228;-66
2023/07/25 01:21:16;;;;;;;4.63;2.27;;;17.10;1.00;;;;;;8198512;28;20213;-64
2023/07/25 01:25:17;;;;;;;2.77;2.07;;;17.00;1.00;;;;;;8197790;28;20209;-66
2023/07/25 01:29:18;;;;;;;4.17;2.10;;;16.90;1.00;;;;;;8202322;28;20192;-65
2023/07/25 01:33:19;;;;;;;3.60;2.17;;;16.80;1.00;;;;;;8201320;28;20185;-65
2023/07/25 01:37:20;;;;;;;2.80;2.40;;;16.60;1.00;;;;;;8213203;28;20193;-64
2023/07/25 01:41:21;;;;;;;4.00;2.00;;;16.60;1.00;;;;;;8200915;28;20189;-65
2023/07/25 01:45:22;;;;;;;3.10;2.27;;;16.50;1.00;;;;;;8199814;28;20235;-64
2023/07/25 01:49:23;;;;;;;2.37;2.03;;;16.50;1.00;;;;;;8201877;28;20229;-65
2023/07/25 01:53:24;;;;;;;2.93;1.87;;;16.40;1.00;;;;;;8199842;28;20189;-65
2023/07/25 01:57:25;;;;;;;7.03;2.67;;;16.40;1.00;;;;;;8196018;28;20196;-64
2023/07/25 02:01:26;;;;;;;3.03;2.33;;;16.40;9.60;;;;;;8195462;28;20196;-66
2023/07/25 02:05:27;;;;;;;2.53;1.90;;;16.30;20.90;;;;;;8201555;28;20220;-64
2023/07/25 02:09:30;;;;;;;3.57;2.40;;;16.30;52.00;;;;;;8195986;28;20188;-65
2023/07/25 02:13:31;;;;;;;3.20;2.40;;;16.30;56.80;;;;;;8197818;28;20197;-65
2023/07/25 02:17:32;;;;;;;2.87;2.30;;;16.40;54.20;;;;;;8196933;28;20194;-66
2023/07/25 02:21:34;;;;;;;3.63;2.70;;;16.40;32.40;;;;;;8199410;28;20184;-64
2023/07/25 02:25:35;;;;;;;3.63;2.47;;;16.40;41.80;;;;;;8200711;28;20223;-65
2023/07/25 02:29:36;;;;;;;3.30;2.07;;;16.40;39.70;;;;;;8197579;28;20180;-65
2023/07/25 02:33:40;;;;;;;2.80;2.07;;;16.40;36.40;;;;;;8199178;28;20228;-66
2023/07/25 02:37:41;;;;;;;3.20;2.07;;;16.40;38.20;;;;;;8197793;28;20199;-66
2023/07/25 02:41:42;;;;;;;5.37;2.30;;;16.40;28.00;;;;;;8198984;28;20211;-64
2023/07/25 02:45:43;;;;;;;3.40;2.30;;;16.40;26.90;;;;;;8214004;28;20271;-67
2023/07/25 02:49:44;;;;;;;2.20;1.80;;;16.30;33.20;;;;;;8200738;28;20184;-67
2023/07/25 02:53:45;;;;;;;2.37;2.17;;;16.30;55.60;;;;;;8202706;28;20212;-66
2023/07/25 02:57:45;;;;;;;3.67;2.63;;;16.30;67.20;;;;;;8205385;28;20216;-65
2023/07/25 03:01:46;;;;;;;2.33;1.80;;;16.30;91.80;;;;;;8202566;28;20281;-66
2023/07/25 03:05:47;;;;;;;1.90;1.70;;;16.30;99.90;;;;;;8208286;28;20223;-65
2023/07/25 03:09:48;;;;;;;3.20;2.27;;;16.30;99.90;;;;;;8208502;28;20185;-66
2023/07/25 03:13:49;;;;;;;5.03;2.40;;;16.30;99.90;;;;;;8209946;28;20279;-68
2023/07/25 03:17:54;;;;;;;3.10;2.33;;;16.30;99.90;;;;;;8208643;28;20189;-65
2023/07/25 03:21:55;;;;;;;3.00;2.17;;;16.30;99.90;;;;;;8210008;28;20188;-65
2023/07/25 03:25:56;;;;;;;2.87;2.10;;;16.30;99.90;;;;;;8208382;28;20218;-65
2023/07/25 03:29:59;;;;;;;5.20;2.50;;;16.30;99.90;;;;;;8208574;28;20283;-65
2023/07/25 03:34:07;;;;;;;4.23;2.30;;;16.30;99.90;;;;;;8226341;28;20315;-66
2023/07/25 03:38:08;;;;;;;3.03;2.03;;;16.40;99.50;;;;;;8203121;28;20288;-66
2023/07/25 03:42:08;;;;;;;4.33;2.00;;;16.40;93.50;;;;;;8208540;28;20192;-66
2023/07/25 03:46:10;;;;;;;3.60;2.33;;;16.50;74.50;;;;;;8207100;28;20300;-66
2023/07/25 03:50:11;;;;;;;4.00;2.00;;;16.60;56.90;;;;;;8208485;28;20268;-64
2023/07/25 03:54:11;;;;;;;3.07;2.20;;;16.50;42.20;;;;;;8210460;28;20254;-64
2023/07/25 03:58:18;;;;;;;2.97;2.17;;;16.60;38.00;;;;;;8222459;28;20288;-65
2023/07/25 04:02:22;;;;;;;3.17;1.97;;;16.70;22.10;;;;;;8221588;28;20213;-66
2023/07/25 04:06:22;;;;;;;3.83;2.20;;;16.80;1.00;;;;;;8205205;28;20284;-63
2023/07/25 04:10:23;;;;;;;2.80;2.20;;;16.90;1.00;;;;;;8208363;28;20235;-67
2023/07/25 04:14:24;;;;;;;2.30;2.00;;;17.10;1.00;;;;;;8208930;28;20248;-66
2023/07/25 04:18:25;;;;;;;3.27;2.00;;;17.30;1.00;;;;;;8207208;28;20189;-69
2023/07/25 04:22:26;;;;;;;3.57;2.27;;;17.50;1.00;;;;;;8204655;28;20189;-66
2023/07/25 04:26:27;;;;;;;3.30;2.10;;;17.70;1.00;;;;;;8208282;28;20248;-65
2023/07/25 04:30:28;;;;;;;2.37;2.00;;;18.30;1.00;;;;;;8217955;28;20185;-66
2023/07/25 04:34:30;;;;;;;3.10;1.93;;;19.00;1.00;;;;;;8197003;28;20191;-66
2023/07/25 04:38:30;;;;;;;2.30;2.07;;;19.00;1.00;;;;;;8203754;28;20198;-64
2023/07/25 04:42:31;;;;;;;3.67;2.27;;;18.80;1.00;;;;;;8220223;28;20184;-65
2023/07/25 04:46:32;;;;;;;5.77;2.30;;;18.80;1.00;;;;;;8200165;28;20216;-67
2023/07/25 04:50:33;;;;;;;4.67;2.37;;;18.80;1.00;;;;;;8217826;28;20231;-66
2023/07/25 04:54:33;;;;;;;2.77;2.07;;;19.10;1.00;;;;;;8200231;28;20199;-68
2023/07/25 04:58:38;;;;;;;3.67;1.93;;;20.00;1.00;;;;;;8199448;28;20195;-66
2023/07/25 05:02:41;;;;;;;5.37;2.47;;;20.30;99.90;;;;;;8215626;28;20215;-66
2023/07/25 05:06:42;;;;;;;3.17;2.67;;;20.00;99.90;;;;;;8210421;28;20320;-67
2023/07/25 05:10:42;;;;;;;4.37;2.60;;;19.50;99.90;;;;;;8199360;28;20189;-65
2023/07/25 05:14:43;;;;;;;4.47;2.60;;;19.00;1.00;;;;;;8194995;28;20220;-66
2023/07/25 05:18:44;;;;;;;5.57;3.20;;;18.70;1.00;;;;;;8199056;28;20240;-68
2023/07/25 05:22:54;;;;;;;3.30;3.00;;;18.60;1.00;;;;;;8201592;28;20228;-67
2023/07/25 05:26:54;;;;;;;3.60;3.30;;;18.60;1.00;;;;;;8197536;28;20194;-65
2023/07/25 05:30:55;;;;;;;5.17;3.30;;;18.50;1.00;;;;;;8197363;28;20199;-67
2023/07/25 05:34:56;;;;;;;4.53;3.90;;;18.60;1.00;;;;;;8202323;28;20263;-66
2023/07/25 05:38:57;;;;;;;7.33;4.30;;;18.70;1.00;;;;;;8200560;28;20200;-66
2023/07/25 05:42:58;;;;;;;5.10;4.60;;;18.70;1.00;;;;;;8200152;28;20270;-66
2023/07/25 05:47:02;;;;;;;6.63;4.63;;;18.80;1.00;;;;;;8199772;28;20189;-64
2023/07/25 05:51:03;;;;;;;5.50;5.00;;;18.80;1.00;;;;;;8214700;28;20196;-67
2023/07/25 05:55:04;;;;;;;7.50;5.07;;;18.70;1.00;;;;;;8196971;28;20197;-67
2023/07/25 05:59:05;;;;;;;5.73;4.57;;;18.60;1.00;;;;;;8217591;28;20204;-67
2023/07/25 06:03:06;;;;;;;7.60;5.13;;;18.60;1.00;;;;;;8193062;28;20208;-66
2023/07/25 06:07:07;;;;;;;6.07;4.70;;;18.40;1.00;;;;;;8199769;28;20216;-65
2023/07/25 06:11:08;;;;;;;6.40;5.30;;;18.50;1.00;;;;;;8201744;28;20196;-67
2023/07/25 06:15:09;;;;;;;5.10;4.63;;;18.70;1.00;;;;;;8213569;28;20201;-64
2023/07/25 06:19:13;;;;;;;6.10;5.00;;;18.70;1.00;;;;;;8198802;28;20198;-68
2023/07/25 06:23:14;;;;;;;5.73;4.80;;;18.60;1.00;;;;;;8200393;28;20220;-67
2023/07/25 06:27:18;;;;;;;4.73;4.33;;;18.50;1.00;;;;;;8195202;28;20189;-65
2023/07/25 06:31:19;;;;;;;9.03;3.80;;;18.60;1.00;;;;;;8204076;28;20191;-66
2023/07/25 06:35:20;;;;;;;3.50;3.20;;;18.80;1.00;;;;;;8204719;28;20219;-63
2023/07/25 06:39:21;;;;;;;3.43;3.03;;;18.90;1.00;;;;;;8200866;28;20196;-65
2023/07/25 06:43:22;;;;;;;3.40;2.70;;;19.00;1.00;;;;;;8206541;28;20232;-62
2023/07/25 06:47:24;;;;;;;4.93;2.70;;;19.20;99.90;;;;;;8203122;28;20303;-62
2023/07/25 06:51:24;;;;;;;3.57;2.80;;;19.30;99.90;;;;;;8202342;28;20203;-63
2023/07/25 06:55:28;;;;;;;3.40;2.47;;;19.60;99.90;;;;;;8204318;28;20189;-64
2023/07/25 06:59:29;;;;;;;3.43;2.47;;;19.60;99.90;;;;;;8220591;28;20227;-64
2023/07/25 07:03:31;;;;;;;2.87;2.57;;;19.80;99.90;;;;;;8205773;28;20212;-65
2023/07/25 07:07:32;;;;;;;5.03;2.70;;;20.10;99.90;;;;;;8216788;28;20259;-64
2023/07/25 07:11:32;;;;;;;3.17;2.73;;;19.80;99.90;;;;;;8205632;28;20199;-63
2023/07/25 07:15:33;;;;;;;3.93;2.80;;;19.90;99.90;;;;;;8193772;28;20219;-63
2023/07/25 07:19:34;;;;;;;2.47;2.20;;;20.00;99.90;;;;;;8201460;28;20196;-63
2023/07/25 07:23:35;;;;;;;5.03;3.03;;;20.20;99.90;;;;;;8198683;28;20236;-63
2023/07/25 07:27:36;;;;;;;2.73;2.40;;;20.40;99.90;;;;;;8193772;28;20216;-66
2023/07/25 07:31:37;;;;;;;3.77;2.50;;;21.00;99.90;;;;;;8204552;28;20188;-66
2023/07/25 07:35:43;;;;;;;2.87;2.60;;;21.60;99.90;;;;;;8210260;28;20189;-65
2023/07/25 07:39:47;;;;;;;3.50;2.83;;;21.30;99.90;;;;;;8210359;28;20193;-67
2023/07/25 07:43:48;;;;;;;3.03;2.63;;;21.20;99.90;;;;;;8206575;28;20213;-68
2023/07/25 07:47:49;;;;;;;5.07;2.33;;;21.20;99.90;;;;;;8210294;28;20199;-65
2023/07/25 07:51:49;;;;;;;2.83;2.63;;;21.10;99.90;;;;;;8216288;28;20189;-66
2023/07/25 07:55:52;;;;;;;5.63;2.57;;;20.90;99.90;;;;;;8203541;28;20193;-66
2023/07/25 07:59:53;;;;;;;2.87;2.60;;;21.00;99.90;;;;;;8201579;28;20252;-64
2023/07/25 08:03:57;;;;;;;3.80;2.80;;;20.70;99.90;;;;;;8197736;28;20223;-66
2023/07/25 08:07:58;;;;;;;4.70;2.63;;;20.90;99.90;;;;;;8203920;28;20228;-66
2023/07/25 08:12:06;;;;;;;3.90;2.40;;;21.40;99.90;;;;;;8198627;28;20196;-65
2023/07/25 08:16:07;;;;;;;2.83;2.60;;;21.50;99.90;;;;;;8214816;28;20348;-65
2023/07/25 08:20:17;;;;;;;3.47;3.07;;;21.30;99.90;;;;;;8194006;28;20276;-66
2023/07/25 08:24:18;;;;;;;5.13;3.23;;;21.30;99.90;;;;;;8203606;28;20212;-66
2023/07/25 08:28:19;;;;;;;4.43;3.33;;;21.20;99.90;;;;;;8203246;28;20255;-65
2023/07/25 08:32:25;;;;;;;5.40;3.77;;;21.20;99.90;;;;;;8200467;28;20220;-64
2023/07/25 08:36:26;;;;;;;4.67;4.33;;;21.30;99.90;;;;;;8214059;28;20226;-66
2023/07/25 08:40:27;;;;;;;5.77;4.73;;;21.20;99.90;;;;;;8196505;28;20203;-66
2023/07/25 08:44:28;;;;;;;5.37;4.53;;;21.10;99.90;;;;;;8203085;28;20216;-65
2023/07/25 08:48:31;;;;;;;5.30;4.80;;;21.20;99.90;;;;;;8215619;28;20323;-64
2023/07/25 08:52:34;;;;;;;5.93;4.80;;;21.20;99.90;;;;;;8201447;28;20193;-65
2023/07/25 08:56:35;;;;;;;5.23;4.83;;;21.40;99.90;;;;;;8216988;28;20288;-66
2023/07/25 09:00:36;;;;;;;5.80;5.30;;;21.50;99.90;;;;;;8200053;28;20323;-66
2023/07/25 09:04:41;;;;;;;5.53;5.03;;;21.50;99.90;;;;;;8198090;28;20216;-66
2023/07/25 09:08:42;;;;;;;5.67;4.80;;;21.50;99.90;;;;;;8214726;28;20391;-64
2023/07/25 09:12:44;;;;;;;5.67;5.20;;;21.50;99.90;;;;;;8198443;28;20188;-67
2023/07/25 09:16:45;;;;;;;4.77;4.23;;;21.40;99.90;;;;;;8216869;28;20200;-66
2023/07/25 09:20:49;;;;;;;5.23;4.83;;;21.60;99.90;;;;;;8201935;28;20206;-68
2023/07/25 09:24:50;;;;;;;5.00;4.50;;;21.90;99.90;;;;;;8198554;28;20216;-66
2023/07/25 09:28:53;;;;;;;5.30;4.80;;;22.00;99.90;;;;;;8202915;28;20211;-66
2023/07/25 09:32:54;;;;;;;5.40;4.90;;;22.60;99.90;;;;;;8202183;28;20188;-66
2023/07/25 09:37:02;;;;;;;4.63;4.23;;;23.00;99.90;;;;;;8226174;28;20272;-65
2023/07/25 09:41:05;;;;;;;4.90;4.50;;;23.30;99.90;;;;;;8205995;28;20217;-67
2023/07/25 09:45:14;;;;;;;5.03;4.53;;;23.00;99.90;;;;;;8207143;28;20216;-65
2023/07/25 09:49:20;;;;;;;5.00;4.60;;;23.20;99.90;;;;;;8203535;28;20196;-67
2023/07/25 09:53:21;;;;;;;5.50;4.40;;;22.70;99.90;;;;;;8207557;28;20200;-67
2023/07/25 09:57:22;;;;;;;4.80;4.40;;;22.60;99.90;;;;;;8209732;28;20219;-71
2023/07/25 10:01:25;;;;;;;5.00;4.60;;;22.80;99.90;;;;;;8196694;28;20192;-63
2023/07/25 10:05:28;;;;;;;5.60;5.03;;;23.30;99.90;;;;;;8204465;28;20247;-69
2023/07/25 10:09:30;;;;;;;4.97;4.57;;;23.30;99.90;;;;;;8200085;28;20198;-65
2023/07/25 10:13:34;;;;;;;4.33;3.87;;;23.80;99.90;;;;;;8200438;28;20201;-67
2023/07/25 10:17:38;;;;;;;3.57;3.27;;;24.20;99.90;;;;;;8212893;28;20196;-68
2023/07/25 10:21:53;;;;;;;4.63;4.23;;;24.70;99.90;;;;;;8206157;28;20283;-67
2023/07/25 10:25:54;;;;;;;3.40;2.70;;;25.00;99.90;;;;;;8210339;28;20217;-66
2023/07/25 10:30:00;;;;;;;3.90;3.40;;;23.90;99.90;;;;;;8210123;28;20195;-67
2023/07/25 10:34:05;;;;;;;4.23;3.57;;;22.80;99.90;;;;;;8207003;28;20202;-66
2023/07/25 10:38:09;;;;;;;6.03;3.17;;;22.30;99.90;;;;;;8207598;28;20196;-66
2023/07/25 10:42:34;;;;;;;3.77;3.33;;;22.40;99.90;;;;;;8203104;28;20191;-67
2023/07/25 10:46:35;;;;;;;5.13;3.27;;;23.00;99.90;;;;;;8202317;28;20286;-67
2023/07/25 10:50:44;;;;;;;3.10;2.80;;;23.70;99.90;;;;;;8197067;28;20216;-68
2023/07/25 10:55:03;;;;;;;2.77;2.57;;;24.30;99.90;;;;;;8197671;28;20189;-68
2023/07/25 10:59:10;;;;;;;3.00;2.60;;;24.50;99.90;;;;;;8192831;28;20275;-68
2023/07/25 11:03:33;;;;;;;3.00;2.43;;;24.30;99.90;;;;;;8199993;28;20212;-66
2023/07/25 11:07:37;;;;;;;3.10;2.70;;;24.00;99.90;;;;;;8196587;28;20200;-66
2023/07/25 11:11:46;;;;;;;3.03;2.73;;;23.50;99.90;;;;;;8199074;28;20275;-64
2023/07/25 11:15:47;;;;;;;3.63;2.30;;;23.20;99.90;;;;;;8203518;28;20200;-66
2023/07/25 11:19:48;;;;;;;3.17;2.33;;;23.10;99.90;;;;;;8207111;28;20275;-65
2023/07/25 11:23:49;;;;;;;3.17;1.97;;;22.80;99.90;;;;;;8223412;28;20204;-65
2023/07/25 11:27:51;;;;;;;2.57;1.93;;;22.90;99.90;;;;;;8204794;28;20193;-65
2023/07/25 11:31:55;;;;;;;2.97;2.37;;;22.90;99.90;;;;;;8205210;28;20191;-65
2023/07/25 11:35:57;;;;;;;3.47;1.83;;;23.40;99.90;;;;;;8199645;28;20193;-68
2023/07/25 11:40:14;;;;;;;3.43;1.97;;;23.60;99.90;;;;;;8203543;28;20189;-66
2023/07/25 11:44:17;;;;;;;3.97;2.43;;;23.80;99.90;;;;;;8216272;28;20211;-67
2023/07/25 11:48:20;;;;;;;3.00;2.20;;;23.90;99.90;;;;;;8205825;28;20226;-64
2023/07/25 11:52:21;;;;;;;2.93;2.63;;;24.00;99.90;;;;;;8202891;28;20212;-64
2023/07/25 11:56:22;;;;;;;3.23;1.90;;;23.70;99.90;;;;;;8203255;28;20207;-66
2023/07/25 12:00:24;;;;;;;2.83;2.00;;;24.10;99.90;;;;;;8201403;28;20197;-67
2023/07/25 12:04:25;;;;;;;4.07;2.00;;;24.70;99.90;;;;;;8202357;28;20240;-66
2023/07/25 12:08:29;;;;;;;2.33;1.80;;;25.00;99.90;;;;;;8200831;28;20200;-65
2023/07/25 12:12:32;;;;;;;3.00;1.37;;;24.50;99.90;;;;;;8199596;28;20299;-64
2023/07/25 12:16:35;;;;;;;2.47;1.50;;;24.60;99.90;;;;;;8201933;28;20193;-66
2023/07/25 12:20:40;;;;;;;2.47;1.83;;;24.70;99.90;;;;;;8205483;28;20223;-66
2023/07/25 12:24:41;;;;;;;2.83;2.07;;;24.50;99.90;;;;;;8198119;28;20247;-66
2023/07/25 12:28:44;;;;;;;2.83;2.47;;;24.10;99.90;;;;;;8207381;28;20196;-65
2023/07/25 12:32:45;;;;;;;5.03;2.70;;;24.10;99.90;;;;;;8200935;28;20189;-65
2023/07/25 12:36:51;;;;;;;5.93;2.90;;;23.40;99.90;;;;;;8216912;28;20197;-67
2023/07/25 12:40:52;;;;;;;6.57;3.00;;;23.20;99.90;;;;;;8202214;28;20212;-66
2023/07/25 12:44:57;;;;;;;3.23;2.67;;;23.10;99.90;;;;;;8202009;28;20266;-66
2023/07/25 12:48:58;;;;;;;4.60;2.33;;;23.10;99.90;;;;;;8201623;28;20247;-66
2023/07/25 12:53:00;;;;;;;2.67;2.17;;;22.80;99.90;;;;;;8219546;28;20212;-67
2023/07/25 12:57:01;;;;;;;3.03;2.47;;;22.80;99.90;;;;;;8207355;28;20264;-67
2023/07/25 13:01:05;;;;;;;3.13;2.57;;;23.00;99.90;;;;;;8206727;28;20192;-68
2023/07/25 13:05:27;;;;;;;4.60;2.37;;;23.60;99.90;;;;;;8203677;28;20232;-65
2023/07/25 13:09:28;;;;;;;2.10;1.90;;;24.60;99.90;;;;;;8202424;28;20219;-65
2023/07/25 13:13:29;;;;;;;2.33;1.90;;;25.10;99.90;;;;;;8187633;28;20229;-64
2023/07/25 13:17:32;;;;;;;4.07;2.33;;;24.50;99.90;;;;;;8202937;28;20192;-68
2023/07/25 13:21:33;;;;;;;4.37;2.10;;;24.30;99.90;;;;;;8205692;28;20189;-66
2023/07/25 13:25:35;;;;;;;2.27;2.07;;;24.80;99.90;;;;;;8201574;28;20270;-66
2023/07/25 13:29:42;;;;;;;3.00;2.00;;;24.30;99.90;;;;;;8199436;28;20199;-69
2023/07/25 13:33:43;;;;;;;3.53;2.07;;;23.70;99.90;;;;;;8186859;28;20193;-66
2023/07/25 13:37:47;;;;;;;3.40;2.53;;;23.30;99.90;;;;;;8213555;28;20255;-67
2023/07/25 13:41:48;;;;;;;3.70;1.83;;;23.00;99.90;;;;;;8202100;28;20255;-67
2023/07/25 13:45:50;;;;;;;2.93;2.03;;;22.80;99.90;;;;;;8200661;28;20293;-67
2023/07/25 13:49:51;;;;;;;2.40;2.20;;;22.80;99.90;;;;;;8204529;28;20184;-68
2023/07/25 13:53:52;;;;;;;3.40;2.53;;;22.70;99.90;;;;;;8194185;28;20279;-68
2023/07/25 13:57:53;;;;;;;2.60;2.20;;;22.80;99.90;;;;;;8210419;28;20192;-67
2023/07/25 14:01:55;;;;;;;2.63;2.00;;;22.70;99.90;;;;;;8206571;28;20204;-67
2023/07/25 14:05:56;;;;;;;2.13;1.90;;;22.50;99.90;;;;;;8199003;28;20217;-67
2023/07/25 14:09:57;;;;;;;2.43;2.10;;;22.60;99.90;;;;;;8218667;28;20220;-65
2023/07/25 14:13:59;;;;;;;1.60;1.50;;;22.60;99.90;;;;;;8197780;28;20192;-68
2023/07/25 14:18:01;;;;;;;4.00;2.20;;;22.70;99.90;;;;;;8214804;28;20311;-66
2023/07/25 14:22:03;;;;;;;4.67;1.90;;;22.60;99.90;;;;;;8200102;28;20204;-66
2023/07/25 14:26:04;;;;;;;4.33;1.73;;;22.60;99.90;;;;;;8215668;28;20248;-67
2023/07/25 14:30:09;;;;;;;2.80;1.50;;;22.60;99.90;;;;;;8203274;28;20184;-66
2023/07/25 14:34:10;;;;;;;2.43;1.90;;;22.60;99.90;;;;;;8204026;28;20197;-68
2023/07/25 14:38:11;;;;;;;2.50;1.30;;;22.80;99.90;;;;;;8202777;28;20192;-67
2023/07/25 14:42:12;;;;;;;2.27;1.87;;;23.00;99.90;;;;;;8201957;28;20189;-66
2023/07/25 14:46:13;;;;;;;3.33;1.53;;;23.30;99.90;;;;;;8197096;28;20220;-64
2023/07/25 14:50:15;;;;;;;3.00;1.57;;;23.80;99.90;;;;;;8196852;28;20197;-68
2023/07/25 14:54:16;;;;;;;1.40;1.30;;;24.30;99.90;;;;;;8218285;28;20188;-65
2023/07/25 14:58:17;;;;;;;1.43;1.13;;;24.60;99.90;;;;;;8222319;28;20196;-65
2023/07/25 15:02:18;;;;;;;2.30;1.30;;;24.50;99.90;;;;;;8200807;28;20227;-65
2023/07/25 15:06:19;;;;;;;3.07;1.63;;;24.00;99.90;;;;;;8205156;28;20223;-67
2023/07/25 15:10:21;;;;;;;3.83;1.47;;;23.50;99.90;;;;;;8208020;28;20201;-66
2023/07/25 15:14:22;;;;;;;2.13;1.40;;;23.30;99.90;;;;;;8198597;28;20232;-64
2023/07/25 15:18:26;;;;;;;2.70;1.70;;;22.90;99.90;;;;;;8176461;28;20239;-67
2023/07/25 15:22:27;;;;;;;3.23;1.57;;;22.70;99.90;;;;;;8218842;28;20200;-66
2023/07/25 15:26:28;;;;;;;2.07;1.60;;;22.80;99.90;;;;;;8202305;28;20253;-66
2023/07/25 15:30:31;;;;;;;2.27;1.50;;;22.90;99.90;;;;;;8199662;28;20200;-65
2023/07/25 15:34:33;;;;;;;6.10;1.80;;;22.90;99.90;;;;;;8194541;28;20290;-65
2023/07/25 15:38:34;;;;;;;3.00;1.20;;;22.70;99.90;;;;;;8201436;28;20236;-64
2023/07/25 15:42:35;;;;;;;2.90;1.30;;;22.80;99.90;;;;;;8204542;28;20215;-65
2023/07/25 15:46:36;;;;;;;2.30;1.60;;;22.70;99.90;;;;;;8201660;28;20268;-64
2023/07/25 15:50:37;;;;;;;1.40;1.20;;;22.70;99.90;;;;;;8205543;28;20188;-63
2023/07/25 15:54:38;;;;;;;2.03;1.40;;;22.50;99.90;;;;;;8208182;28;20192;-64
2023/07/25 15:58:40;;;;;;;1.80;1.50;;;22.50;99.90;;;;;;8198484;28;20291;-64
2023/07/25 16:02:41;;;;;;;1.53;1.33;;;22.70;99.90;;;;;;8202987;28;20201;-63
2023/07/25 16:06:42;;;;;;;2.27;1.30;;;22.60;99.90;;;;;;8201066;28;20216;-64
2023/07/25 16:10:45;;;;;;;2.03;1.50;;;22.40;99.90;;;;;;8199587;28;20192;-63
2023/07/25 16:14:49;;;;;;;4.03;1.57;;;22.30;99.90;;;;;;8199439;28;20200;-65
2023/07/25 16:18:50;;;;;;;4.10;1.50;;;22.40;99.90;;;;;;8200829;28;20201;-64
2023/07/25 16:22:52;;;;;;;3.23;1.30;;;22.30;99.90;;;;;;8194824;28;20208;-65
2023/07/25 16:26:53;;;;;;;1.87;1.00;;;22.30;99.90;;;;;;8197095;28;20224;-65
2023/07/25 16:30:54;;;;;;;2.53;1.40;;;22.00;99.90;;;;;;8194539;28;20189;-65
2023/07/25 16:34:57;;;;;;;1.93;1.33;;;21.80;99.90;;;;;;8200142;28;20335;-65
2023/07/25 16:38:58;;;;;;;2.00;1.17;;;21.60;99.90;;;;;;8206428;28;20189;-64
2023/07/25 16:42:59;;;;;;;2.50;1.40;;;21.40;99.90;;;;;;8201417;28;20248;-63
2023/07/25 16:47:00;;;;;;;2.03;1.43;;;21.20;99.90;;;;;;8204569;28;20311;-63
2023/07/25 16:51:01;;;;;;;3.17;1.90;;;21.00;99.90;;;;;;8200222;28;20196;-64
2023/07/25 16:55:03;;;;;;;2.47;1.33;;;20.80;99.90;;;;;;8202270;28;20231;-62
2023/07/25 16:59:04;;;;;;;2.53;1.50;;;20.70;99.90;;;;;;8193849;28;20197;-64
2023/07/25 17:03:05;;;;;;;2.80;1.50;;;20.50;99.90;;;;;;8201188;28;20243;-65
2023/07/25 17:07:07;;;;;;;3.53;1.50;;;20.40;99.90;;;;;;8210049;28;20216;-65
2023/07/25 17:11:11;;;;;;;2.43;1.67;;;20.30;99.90;;;;;;8197421;28;20185;-63
2023/07/25 17:15:12;;;;;;;4.53;1.20;;;20.30;99.90;;;;;;8192010;28;20197;-64
2023/07/25 17:19:13;;;;;;;4.37;1.27;;;20.30;99.90;;;;;;8200043;28;20184;-64
2023/07/25 17:23:14;;;;;;;3.10;1.33;;;20.20;99.90;;;;;;8189173;28;20193;-65
2023/07/25 17:27:15;;;;;;;3.07;1.43;;;20.20;99.90;;;;;;8204491;28;20192;-64
2023/07/25 17:31:16;;;;;;;4.33;1.40;;;20.10;99.90;;;;;;8204718;28;20185;-64
2023/07/25 17:35:18;;;;;;;2.33;1.33;;;20.00;99.90;;;;;;8197878;28;20573;-65
2023/07/25 17:39:19;;;;;;;4.07;1.30;;;19.80;99.90;;;;;;8215874;28;20279;-63
2023/07/25 17:43:20;;;;;;;2.40;1.23;;;19.70;99.90;;;;;;8206144;28;20185;-66
2023/07/25 17:47:21;;;;;;;2.00;1.30;;;19.50;99.90;;;;;;8199734;28;20220;-64
2023/07/25 17:51:22;;;;;;;1.87;1.50;;;19.20;99.90;;;;;;8200855;28;20189;-64
2023/07/25 17:55:23;;;;;;;4.47;1.80;;;18.90;99.90;;;;;;8193561;28;20192;-64
2023/07/25 17:59:24;;;;;;;1.80;1.47;;;18.50;99.90;;;;;;8200673;28;20181;-65
2023/07/25 18:03:25;;;;;;;2.10;1.80;;;18.10;99.90;;;;;;8199643;28;20212;-63
2023/07/25 18:07:26;;;;;;;3.30;2.03;;;17.80;1.00;;;;;;8210912;28;20316;-64
2023/07/25 18:11:27;;;;;;;4.40;2.87;;;17.50;1.00;;;;;;8197325;28;20185;-65
2023/07/25 18:15:28;;;;;;;4.90;2.37;;;17.30;1.00;;;;;;8195587;28;20238;-63
2023/07/25 18:19:29;;;;;;;3.27;2.00;;;17.10;73.60;;;;;;8200391;28;20229;-62
2023/07/25 18:23:30;;;;;;;3.73;2.23;;;16.80;99.90;;;;;;8202400;28;20247;-63
2023/07/25 18:27:31;;;;;;;5.87;2.67;;;16.60;99.90;;;;;;8201092;28;20196;-64
2023/07/25 18:31:32;;;;;;;4.87;2.03;;;16.50;99.90;;;;;;8207090;28;20267;-64
2023/07/25 18:35:33;;;;;;;2.87;2.40;;;16.30;1.00;;;;;;8203691;28;20212;-64
2023/07/25 18:39:34;;;;;;;4.03;2.90;;;16.10;1.00;;;;;;8204310;28;20199;-65
2023/07/25 18:43:35;;;;;;;3.40;2.27;;;16.00;99.90;;;;;;8204452;28;20250;-64
2023/07/25 18:47:37;;;;;;;6.03;2.90;;;15.90;99.90;;;;;;8208819;28;20184;-65
2023/07/25 18:51:38;;;;;;;5.47;3.10;;;15.80;1.00;;;;;;8207590;28;20264;-63
2023/07/25 18:55:42;;;;;;;4.90;2.70;;;15.70;24.20;;;;;;8219197;28;20198;-64
2023/07/25 18:59:44;;;;;;;4.57;3.27;;;15.60;99.90;;;;;;8218180;28;20311;-64
2023/07/25 19:03:45;;;;;;;4.80;3.10;;;15.60;99.90;;;;;;8200725;28;20208;-64
2023/07/25 19:07:45;;;;;;;5.67;3.60;;;15.50;99.90;;;;;;8200995;28;20204;-65
2023/07/25 19:11:47;;;;;;;4.63;2.80;;;15.50;1.00;;;;;;8205957;28;20193;-65
2023/07/25 19:15:48;;;;;;;5.80;3.70;;;15.40;99.90;;;;;;8205755;28;20276;-65
2023/07/25 19:19:52;;;;;;;4.07;3.43;;;15.40;1.00;;;;;;8203059;28;20185;-65
2023/07/25 19:23:53;;;;;;;5.80;3.87;;;15.30;99.90;;;;;;8199736;28;20227;-65
2023/07/25 19:27:54;;;;;;;5.40;3.30;;;15.30;99.90;;;;;;8205799;28;20193;-67
2023/07/25 19:31:55;;;;;;;3.57;3.20;;;15.30;1.00;;;;;;8205577;28;20192;-65
2023/07/25 19:35:58;;;;;;;4.63;3.53;;;15.20;99.90;;;;;;8203575;28;20190;-64
2023/07/25 19:39:59;;;;;;;4.53;4.00;;;15.20;99.90;;;;;;8206804;28;20228;-64
2023/07/25 19:44:02;;;;;;;5.60;3.83;;;15.20;99.90;;;;;;8202308;28;20220;-64
2023/07/25 19:48:04;;;;;;;6.67;4.30;;;15.20;99.90;;;;;;8222565;28;20196;-65
2023/07/25 19:52:06;;;;;;;5.50;4.10;;;15.20;99.90;;;;;;8197553;28;20203;-63
2023/07/25 19:56:08;;;;;;;4.10;3.17;;;15.10;99.90;;;;;;8199559;28;20287;-63
2023/07/25 20:00:09;;;;;;;4.37;3.83;;;15.10;99.90;;;;;;8211793;28;20197;-64
2023/07/25 20:04:10;;;;;;;6.53;4.30;;;15.00;99.90;;;;;;8200189;28;20220;-66
2023/07/25 20:08:11;;;;;;;4.73;4.07;;;15.00;99.90;;;;;;8194405;28;20211;-64
2023/07/25 20:12:12;;;;;;;4.70;3.80;;;15.00;99.90;;;;;;8202086;28;20202;-61
2023/07/25 20:16:14;;;;;;;3.80;3.10;;;15.00;99.90;;;;;;8203593;28;20220;-62
2023/07/25 20:20:15;;;;;;;3.53;3.10;;;14.90;99.90;;;;;;8209367;28;20206;-62
2023/07/25 20:24:19;;;;;;;5.20;3.57;;;14.80;99.90;;;;;;8207399;28;20224;-63
2023/07/25 20:28:24;;;;;;;6.50;4.17;;;14.80;99.90;;;;;;8205257;28;20192;-63
2023/07/25 20:32:25;;;;;;;6.00;3.67;;;14.80;99.90;;;;;;8201068;28;20198;-62
2023/07/25 20:36:26;;;;;;;7.80;3.83;;;14.80;99.90;;;;;;8202476;28;20193;-62
2023/07/25 20:40:27;;;;;;;4.17;3.77;;;14.80;99.90;;;;;;8214922;28;20192;-63
2023/07/25 20:44:28;;;;;;;5.77;4.10;;;14.70;99.90;;;;;;8196913;28;20323;-64
2023/07/25 20:48:34;;;;;;;4.83;3.90;;;14.70;99.90;;;;;;8200404;28;20205;-64
2023/07/25 20:52:36;;;;;;;4.50;3.50;;;14.70;99.90;;;;;;8202987;28;20195;-63
2023/07/25 20:56:37;;;;;;;5.07;3.70;;;14.70;99.90;;;;;;8203582;28;20272;-64
2023/07/25 21:00:38;;;;;;;5.60;3.87;;;14.60;99.90;;;;;;8217703;28;20193;-64